Time;durP1;ratioP1;P1;durP2;ratioP2;P2;SDS_P1;SDS_P2;PMS_P1;PMS_P2;Temp;Humidity;BMP_temperature;BMP_pressure;BME280_temperature;BME280_humidity;BME280_pressure;Samples;Min_cycle;Max_cycle;Signal;HPM_P1;HPM_P2
2022/02/03 00:00:44;;;;;;;;;;;-0.50;99.90;;;;;;4174973;28;19912;-53
2022/02/03 00:03:00;;;;;;;;;;;-0.60;99.90;;;;;;4174170;28;19966;-60
2022/02/03 00:05:11;;;;;;;;;;;-0.60;99.90;;;;;;4175414;28;20719;-51
2022/02/03 00:07:18;;;;;;;;;;;-0.50;99.90;;;;;;4173432;28;19913;-50
2022/02/03 00:25:42;;;;;;;;;;;-0.30;99.90;;;;;;4099024;28;19966;-56
2022/02/03 00:27:57;;;;;;;;;;;-0.20;99.90;;;;;;4102831;28;19961;-56
2022/02/03 00:30:03;;;;;;;;;;;-0.20;99.90;;;;;;4110102;28;20029;-54
2022/02/03 00:32:12;;;;;;;;;;;-0.20;99.90;;;;;;4157732;28;20335;-57
2022/02/03 00:34:19;;;;;;;;;;;-0.20;99.90;;;;;;4157044;28;19964;-57
2022/02/03 00:36:26;;;;;;;;;;;-0.20;99.90;;;;;;4159256;28;20003;-55
2022/02/03 00:52:01;;;;;;;;;;;-0.20;99.90;;;;;;4173383;28;20750;-55
2022/02/03 00:54:07;;;;;;;;;;;-0.20;99.90;;;;;;4173247;28;19966;-59
2022/02/03 00:56:20;;;;;;;;;;;-0.30;99.90;;;;;;4174247;28;20338;-58
2022/02/03 00:58:24;;;;;;;;;;;-0.20;99.90;;;;;;4173665;28;19912;-57
2022/02/03 01:00:26;;;;;;;;;;;-0.20;99.90;;;;;;4163519;28;20062;-56
2022/02/03 01:02:28;;;;;;;;;;;-0.20;99.90;;;;;;4174108;28;19912;-53
2022/02/03 01:04:30;;;;;;;;;;;-0.20;99.90;;;;;;4173605;28;20027;-54
2022/02/03 01:06:32;;;;;;;;;;;-0.20;99.90;;;;;;4174401;28;19909;-58
2022/02/03 01:08:40;;;;;;;;;;;-0.20;99.90;;;;;;4173250;28;19954;-55
2022/02/03 01:10:52;;;;;;;;;;;-0.20;99.90;;;;;;4174060;28;19920;-58
2022/02/03 01:13:05;;;;;;;;;;;-0.20;99.90;;;;;;4171044;28;19990;-57
2022/02/03 01:37:21;;;;;;;;;;;-0.20;99.90;;;;;;4172370;28;19925;-61
2022/02/03 01:44:19;;;;;;;;;;;-0.10;99.90;;;;;;4174465;28;19939;-58
2022/02/03 01:46:29;;;;;;;;;;;0.00;99.90;;;;;;4158957;28;21259;-53
2022/02/03 01:53:05;;;;;;;;;;;0.20;99.90;;;;;;4158251;28;19963;-55
2022/02/03 01:55:07;;;;;;;;;;;0.20;99.90;;;;;;4156321;28;19913;-55
2022/02/03 01:57:12;;;;;;;;;;;0.20;99.90;;;;;;4157511;28;20426;-54
2022/02/03 01:59:21;;;;;;;;;;;0.30;99.90;;;;;;4156936;28;19968;-59
2022/02/03 02:01:22;;;;;;;;;;;0.30;99.90;;;;;;4157628;28;20410;-57
2022/02/03 02:03:40;;;;;;;;;;;0.40;99.90;;;;;;4156700;28;19920;-54
2022/02/03 02:05:41;;;;;;;;;;;0.40;99.90;;;;;;4156854;28;20340;-55
2022/02/03 02:07:42;;;;;;;;;;;0.50;99.90;;;;;;4157026;28;20016;-58
2022/02/03 02:10:00;;;;;;;;;;;0.50;99.90;;;;;;4171494;28;19912;-54
2022/02/03 02:12:34;;;;;;;;;;;0.50;99.90;;;;;;4140551;28;19933;-55
2022/02/03 02:44:58;;;;;;;;;;;1.00;99.90;;;;;;4163450;28;19979;-59
2022/02/03 02:47:01;;;;;;;;;;;1.00;99.90;;;;;;4175456;28;19917;-54
2022/02/03 02:49:10;;;;;;;;;;;1.00;99.90;;;;;;4177176;28;19917;-55
2022/02/03 02:51:20;;;;;;;;;;;1.00;99.90;;;;;;4173219;28;19986;-57
2022/02/03 02:53:46;;;;;;;;;;;1.00;99.90;;;;;;4172130;28;19916;-55
2022/02/03 02:58:33;;;;;;;;;;;1.00;99.90;;;;;;4145020;28;19963;-58
2022/02/03 03:29:30;;;;;;;;;;;0.90;99.90;;;;;;4172446;28;19940;-58
2022/02/03 03:36:04;;;;;;;;;;;0.90;99.90;;;;;;4174970;28;19912;-54
2022/02/03 03:38:07;;;;;;;;;;;0.90;99.90;;;;;;4175317;28;19917;-59
2022/02/03 03:40:09;;;;;;;;;;;0.90;99.90;;;;;;4157290;28;20795;-55
2022/02/03 03:42:14;;;;;;;;;;;0.90;99.90;;;;;;4173824;28;20325;-58
2022/02/03 03:44:16;;;;;;;;;;;0.80;99.90;;;;;;4174570;28;19939;-59
2022/02/03 03:46:25;;;;;;;;;;;0.80;99.90;;;;;;4147597;28;19940;-53
2022/02/03 03:48:28;;;;;;;;;;;0.90;99.90;;;;;;4157816;28;19917;-51
2022/02/03 03:50:32;;;;;;;;;;;0.80;99.90;;;;;;4159774;28;19994;-55
2022/02/03 03:52:42;;;;;;;;;;;0.80;99.90;;;;;;4157387;28;20336;-57
2022/02/03 03:54:55;;;;;;;;;;;0.80;99.90;;;;;;4158974;28;19921;-59
2022/02/03 03:57:11;;;;;;;;;;;0.80;99.90;;;;;;4160387;28;20418;-56
2022/02/03 03:59:56;;;;;;;;;;;0.80;99.90;;;;;;4175787;28;19916;-55
2022/02/03 04:44:15;;;;;;;;;;;0.70;99.90;;;;;;4158427;28;19944;-58
2022/02/03 05:01:33;;;;;;;;;;;0.60;99.90;;;;;;4167146;28;19917;-57
2022/02/03 05:03:53;;;;;;;;;;;0.60;99.90;;;;;;4157409;28;20249;-55
2022/02/03 05:11:19;;;;;;;;;;;0.60;99.90;;;;;;4105203;28;19973;-59
2022/02/03 05:20:44;;;;;;;;;;;0.60;99.90;;;;;;4170101;28;20008;-58
2022/02/03 05:23:35;;;;;;;;;;;0.60;99.90;;;;;;4170813;28;19970;-57
2022/02/03 06:05:07;;;;;;;;;;;0.40;99.90;;;;;;4156652;28;20345;-53
2022/02/03 06:15:47;;;;;;;;;;;0.50;99.90;;;;;;4156833;28;20444;-56
2022/02/03 06:20:42;;;;;;;;;;;0.50;99.90;;;;;;4160143;28;20336;-53
2022/02/03 06:29:23;;;;;;;;;;;0.50;99.90;;;;;;4157530;28;20396;-58
2022/02/03 06:31:24;;;;;;;;;;;0.50;99.90;;;;;;4159633;28;20327;-60
2022/02/03 06:33:25;;;;;;;;;;;0.60;99.90;;;;;;4156886;28;19913;-54
2022/02/03 06:35:26;;;;;;;;;;;0.50;99.90;;;;;;4157791;28;19917;-52
2022/02/03 06:37:27;;;;;;;;;;;0.60;99.90;;;;;;4159005;28;19928;-60
2022/02/03 06:39:29;;;;;;;;;;;0.60;99.90;;;;;;4163030;28;19967;-54
2022/02/03 06:41:30;;;;;;;;;;;0.60;99.90;;;;;;4155484;28;20408;-62
2022/02/03 06:43:31;;;;;;;;;;;0.60;99.90;;;;;;4159406;28;19967;-60
2022/02/03 06:45:41;;;;;;;;;;;0.60;99.90;;;;;;4158575;28;20036;-63
2022/02/03 06:52:02;;;;;;;;;;;0.70;99.90;;;;;;4160312;28;19948;-62
2022/02/03 06:54:13;;;;;;;;;;;0.70;99.90;;;;;;4171388;28;19925;-62
2022/02/03 06:56:28;;;;;;;;;;;0.70;99.90;;;;;;4176182;28;20249;-63
2022/02/03 07:00:41;;;;;;;;;;;0.80;99.90;;;;;;4143145;28;20377;-62
2022/02/03 07:02:44;;;;;;;;;;;0.80;99.90;;;;;;4151949;28;19959;-62
2022/02/03 07:04:45;;;;;;;;;;;0.90;99.90;;;;;;4159737;28;19913;-57
2022/02/03 07:06:46;;;;;;;;;;;0.90;99.90;;;;;;4157779;28;19917;-62
2022/02/03 07:08:49;;;;;;;;;;;0.90;99.90;;;;;;4161428;28;20360;-62
2022/02/03 07:10:53;;;;;;;;;;;1.00;99.90;;;;;;4157123;28;19913;-62
2022/02/03 07:12:57;;;;;;;;;;;1.00;99.90;;;;;;4159091;28;19909;-62
2022/02/03 07:15:00;;;;;;;;;;;1.00;99.90;;;;;;4157579;28;19909;-61
2022/02/03 07:17:03;;;;;;;;;;;1.50;99.90;;;;;;4158144;28;20385;-62
2022/02/03 07:19:04;;;;;;;;;;;1.80;99.90;;;;;;4157507;28;20673;-62
2022/02/03 07:21:05;;;;;;;;;;;2.30;99.90;;;;;;4158101;28;19917;-62
2022/02/03 07:23:06;;;;;;;;;;;2.80;99.90;;;;;;4157748;28;19913;-63
2022/02/03 07:25:08;;;;;;;;;;;3.20;99.90;;;;;;4156430;28;20358;-60
2022/02/03 07:27:09;;;;;;;;;;;3.30;99.90;;;;;;4158961;28;19917;-54
2022/02/03 07:29:11;;;;;;;;;;;3.60;99.90;;;;;;4157685;28;19909;-53
2022/02/03 07:31:11;;;;;;;;;;;3.50;99.90;;;;;;4158305;28;20785;-62
2022/02/03 07:33:13;;;;;;;;;;;3.50;99.90;;;;;;4157350;28;19917;-62
2022/02/03 07:35:14;;;;;;;;;;;3.30;99.90;;;;;;4161021;28;19909;-60
2022/02/03 07:37:15;;;;;;;;;;;3.10;99.90;;;;;;4157217;28;19974;-60
2022/02/03 07:39:16;;;;;;;;;;;2.80;99.90;;;;;;4173866;28;20303;-60
2022/02/03 07:41:17;;;;;;;;;;;2.60;99.90;;;;;;4174500;28;19924;-57
2022/02/03 07:43:18;;;;;;;;;;;2.30;99.90;;;;;;4175084;28;20315;-55
2022/02/03 07:45:20;;;;;;;;;;;2.10;99.90;;;;;;4173155;28;19935;-61
2022/02/03 07:47:21;;;;;;;;;;;2.10;99.90;;;;;;4174498;28;19917;-58
2022/02/03 07:49:22;;;;;;;;;;;2.00;99.90;;;;;;4174695;28;19919;-61
2022/02/03 07:51:23;;;;;;;;;;;1.90;99.90;;;;;;4167744;28;19916;-53
2022/02/03 07:53:24;;;;;;;;;;;1.80;99.90;;;;;;4157578;28;20036;-57
2022/02/03 07:55:25;;;;;;;;;;;1.70;99.90;;;;;;4156772;28;20007;-53
2022/02/03 07:57:26;;;;;;;;;;;1.60;99.90;;;;;;4157836;28;20426;-57
2022/02/03 07:59:27;;;;;;;;;;;1.60;99.90;;;;;;4156839;28;19913;-52
2022/02/03 08:01:28;;;;;;;;;;;1.60;99.90;;;;;;4159384;28;20455;-55
2022/02/03 08:03:29;;;;;;;;;;;1.60;99.90;;;;;;4155895;28;19923;-56
2022/02/03 08:05:30;;;;;;;;;;;1.50;99.90;;;;;;4158524;28;19910;-61
2022/02/03 08:07:33;;;;;;;;;;;1.50;99.90;;;;;;4165545;28;19960;-54
2022/02/03 08:09:53;;;;;;;;;;;1.50;99.90;;;;;;4174655;28;19966;-58
2022/02/03 08:11:55;;;;;;;;;;;1.60;99.90;;;;;;4170703;28;20019;-55
2022/02/03 08:16:10;;;;;;;;;;;1.60;99.90;;;;;;4173110;28;19917;-57
2022/02/03 08:18:17;;;;;;;;;;;1.60;99.90;;;;;;4174146;28;20335;-60
2022/02/03 08:20:20;;;;;;;;;;;1.60;99.90;;;;;;4158372;28;19971;-60
2022/02/03 08:22:26;;;;;;;;;;;1.70;99.90;;;;;;4140145;28;19921;-49
2022/02/03 08:24:32;;;;;;;;;;;1.70;99.90;;;;;;4138411;28;19918;-66
2022/02/03 08:26:48;;;;;;;;;;;1.70;99.90;;;;;;4157114;28;19975;-57
2022/02/03 08:29:15;;;;;;;;;;;1.70;99.90;;;;;;4157119;28;19917;-59
2022/02/03 08:31:21;;;;;;;;;;;1.80;99.90;;;;;;4157934;28;19960;-61
2022/02/03 08:33:21;;;;;;;;;;;1.70;99.90;;;;;;4156886;28;19913;-60
2022/02/03 08:35:35;;;;;;;;;;;1.80;99.90;;;;;;4158692;28;19974;-58
2022/02/03 08:40:08;;;;;;;;;;;1.70;99.90;;;;;;4142952;28;19987;-57
2022/02/03 08:42:08;;;;;;;;;;;1.70;99.90;;;;;;4156608;28;19917;-56
2022/02/03 08:44:09;;;;;;;;;;;1.70;99.90;;;;;;4158151;28;19956;-60
2022/02/03 08:46:12;;;;;;;;;;;1.60;99.90;;;;;;4156462;28;19917;-54
2022/02/03 08:48:14;;;;;;;;;;;1.60;99.90;;;;;;4158644;28;19921;-63
2022/02/03 08:50:15;;;;;;;;;;;1.60;99.90;;;;;;4172783;28;19920;-56
2022/02/03 08:52:21;;;;;;;;;;;1.50;99.90;;;;;;4172371;28;20414;-65
2022/02/03 08:54:25;;;;;;;;;;;1.60;99.90;;;;;;4165260;28;19913;-64
2022/02/03 08:56:35;;;;;;;;;;;1.50;99.90;;;;;;4156855;28;19960;-59
2022/02/03 09:39:27;;;;;;;;;;;3.40;99.90;;;;;;4156051;28;19921;-55
2022/02/03 10:01:55;;;;;;;;;;;3.40;99.90;;;;;;4160515;28;19917;-55
2022/02/03 10:04:11;;;;;;;;;;;3.30;99.90;;;;;;4159081;28;20750;-55
2022/02/03 10:06:21;;;;;;;;;;;3.30;99.90;;;;;;4160214;28;19913;-61
2022/02/03 10:08:22;;;;;;;;;;;3.20;99.90;;;;;;4158703;28;19917;-53
2022/02/03 10:10:23;;;;;;;;;;;3.30;99.90;;;;;;4159895;28;19913;-64
2022/02/03 10:12:37;;;;;;;;;;;3.30;99.90;;;;;;4159183;28;19913;-56
2022/02/03 10:14:42;;;;;;;;;;;3.40;99.90;;;;;;4160477;28;19917;-69
2022/02/03 10:16:43;;;;;;;;;;;3.20;99.90;;;;;;4157958;28;20287;-59
2022/02/03 10:18:45;;;;;;;;;;;3.30;99.90;;;;;;4159464;28;20693;-61
2022/02/03 10:20:47;;;;;;;;;;;3.30;99.90;;;;;;4159545;28;19913;-53
2022/02/03 10:22:53;;;;;;;;;;;3.30;99.90;;;;;;4159564;28;19913;-61
2022/02/03 10:25:09;;;;;;;;;;;3.30;99.90;;;;;;4158944;28;20834;-55
2022/02/03 10:27:17;;;;;;;;;;;3.40;99.90;;;;;;4159000;28;19917;-59
2022/02/03 10:29:19;;;;;;;;;;;3.40;99.90;;;;;;4159247;28;20411;-55
2022/02/03 10:31:23;;;;;;;;;;;3.50;99.90;;;;;;4159400;28;19913;-57
2022/02/03 10:33:36;;;;;;;;;;;3.50;99.90;;;;;;4159278;28;19917;-55
2022/02/03 10:35:58;;;;;;;;;;;3.60;99.90;;;;;;4158503;28;19970;-56
2022/02/03 10:38:07;;;;;;;;;;;3.50;99.90;;;;;;4158045;28;19913;-60
2022/02/03 10:45:35;;;;;;;;;;;3.70;99.90;;;;;;4159286;28;19913;-60
2022/02/03 10:47:23;;;;;;;;;;;3.80;99.90;;;;;;4147686;28;20240;-52
2022/02/03 10:50:07;;;;;;;;;;;3.90;99.90;;;;;;4159564;28;19913;-54
2022/02/03 10:52:28;;;;;;;;;;;3.90;99.90;;;;;;4156583;28;19913;-62
2022/02/03 10:59:54;;;;;;;;;;;4.00;99.90;;;;;;4158796;28;19971;-65
2022/02/03 11:08:47;;;;;;;;;;;3.50;99.90;;;;;;4158308;28;19909;-57
2022/02/03 11:10:56;;;;;;;;;;;3.40;99.90;;;;;;4158636;28;19944;-54
2022/02/03 11:12:57;;;;;;;;;;;3.30;99.90;;;;;;4157738;28;19955;-60
2022/02/03 11:14:59;;;;;;;;;;;3.20;99.90;;;;;;4159009;28;19917;-59
2022/02/03 11:17:01;;;;;;;;;;;3.10;99.90;;;;;;4157911;28;19960;-60
2022/02/03 11:19:05;;;;;;;;;;;3.00;99.90;;;;;;4157589;28;19967;-59
2022/02/03 11:21:07;;;;;;;;;;;3.00;99.90;;;;;;4158212;28;19963;-61
2022/02/03 11:27:51;;;;;;;;;;;2.90;99.90;;;;;;4158083;28;19948;-59
2022/02/03 11:30:40;;;;;;;;;;;2.80;99.90;;;;;;4157179;28;19909;-63
2022/02/03 11:39:53;;;;;;;;;;;2.90;99.90;;;;;;4157558;28;20357;-53
2022/02/03 11:56:07;;;;;;;;;;;2.80;99.90;;;;;;4153042;28;19967;-63
2022/02/03 12:00:45;;;;;;;;;;;2.90;99.90;;;;;;4155522;28;19967;-60
2022/02/03 12:12:07;;;;;;;;;;;3.20;99.90;;;;;;4158342;28;20369;-60
2022/02/03 12:14:18;;;;;;;;;;;3.10;99.90;;;;;;4169952;28;20423;-62
2022/02/03 12:18:54;;;;;;;;;;;3.00;99.90;;;;;;4172979;28;19925;-68
2022/02/03 12:21:05;;;;;;;;;;;3.00;99.90;;;;;;4174904;28;20334;-60
2022/02/03 12:23:27;;;;;;;;;;;3.10;99.90;;;;;;4173773;28;20327;-59
2022/02/03 12:25:43;;;;;;;;;;;3.10;99.90;;;;;;4167911;28;19909;-64
2022/02/03 12:29:51;;;;;;;;;;;3.10;99.90;;;;;;4160350;28;19925;-54
2022/02/03 12:38:49;;;;;;;;;;;3.10;99.90;;;;;;4157867;28;19967;-59
2022/02/03 12:40:58;;;;;;;;;;;3.20;99.50;;;;;;4156972;28;20324;-58
2022/02/03 12:43:14;;;;;;;;;;;3.20;99.50;;;;;;4157313;28;20243;-63
2022/02/03 12:45:27;;;;;;;;;;;3.10;99.90;;;;;;4157037;28;19913;-62
2022/02/03 12:47:27;;;;;;;;;;;3.20;99.90;;;;;;4164675;28;19912;-63
2022/02/03 12:49:32;;;;;;;;;;;3.20;99.90;;;;;;4172750;28;19913;-62
2022/02/03 12:51:33;;;;;;;;;;;3.20;99.50;;;;;;4160684;28;19924;-64
2022/02/03 12:53:35;;;;;;;;;;;3.20;99.80;;;;;;4156541;28;21237;-61
2022/02/03 12:55:37;;;;;;;;;;;3.20;99.30;;;;;;4158090;28;20274;-55
2022/02/03 12:57:38;;;;;;;;;;;3.20;99.20;;;;;;4157263;28;20396;-54
2022/02/03 12:59:39;;;;;;;;;;;3.10;99.20;;;;;;4157381;28;19925;-62
2022/02/03 13:01:41;;;;;;;;;;;3.10;99.90;;;;;;4156417;28;19915;-53
2022/02/03 13:03:47;;;;;;;;;;;3.10;99.10;;;;;;4157407;28;19970;-63
2022/02/03 13:05:55;;;;;;;;;;;3.10;98.90;;;;;;4156694;28;20736;-59
2022/02/03 13:07:58;;;;;;;;;;;3.10;98.00;;;;;;4161841;28;19913;-56
2022/02/03 13:10:10;;;;;;;;;;;3.10;97.50;;;;;;4156164;28;19967;-57
2022/02/03 13:12:17;;;;;;;;;;;3.10;96.90;;;;;;4157345;28;19917;-58
2022/02/03 13:16:25;;;;;;;;;;;3.00;97.00;;;;;;4156984;28;19917;-62
2022/02/03 13:18:32;;;;;;;;;;;3.00;97.80;;;;;;4155636;28;19928;-55
2022/02/03 13:20:42;;;;;;;;;;;2.90;96.90;;;;;;4157485;28;19963;-57
2022/02/03 13:22:53;;;;;;;;;;;2.90;97.10;;;;;;4169225;28;20333;-58
2022/02/03 13:27:00;;;;;;;;;;;2.70;97.50;;;;;;4156170;28;19917;-58
2022/02/03 13:29:06;;;;;;;;;;;2.60;97.80;;;;;;4160099;28;20506;-59
2022/02/03 13:31:22;;;;;;;;;;;2.60;98.00;;;;;;4155598;28;20028;-65
2022/02/03 13:33:46;;;;;;;;;;;2.50;98.80;;;;;;4157360;28;19998;-55
2022/02/03 13:36:06;;;;;;;;;;;2.40;98.00;;;;;;4155400;28;19960;-58
2022/02/03 13:38:18;;;;;;;;;;;2.40;98.00;;;;;;4168439;28;19986;-59
2022/02/03 13:40:20;;;;;;;;;;;2.40;98.50;;;;;;4172153;28;19920;-56
2022/02/03 13:42:21;;;;;;;;;;;2.40;98.50;;;;;;4155506;28;19986;-58
2022/02/03 13:44:27;;;;;;;;;;;2.40;98.10;;;;;;4172633;28;19909;-55
2022/02/03 13:46:32;;;;;;;;;;;2.50;98.10;;;;;;4172514;28;19984;-63
2022/02/03 13:48:33;;;;;;;;;;;2.50;98.50;;;;;;4171969;28;19924;-61
2022/02/03 13:50:34;;;;;;;;;;;2.50;98.10;;;;;;4173603;28;19991;-56
2022/02/03 13:52:45;;;;;;;;;;;2.60;98.00;;;;;;4154172;28;19929;-64
2022/02/03 14:10:24;;;;;;;;;;;2.50;97.90;;;;;;4172703;28;19967;-63
2022/02/03 14:15:53;;;;;;;;;;;2.40;97.30;;;;;;4155269;28;20408;-57
2022/02/03 14:20:34;;;;;;;;;;;2.40;97.60;;;;;;4155548;28;20008;-70
2022/02/03 14:22:58;;;;;;;;;;;2.40;97.40;;;;;;4162539;28;19945;-58
2022/02/03 14:27:24;;;;;;;;;;;2.30;97.80;;;;;;4155912;28;19968;-60
2022/02/03 14:29:28;;;;;;;;;;;2.30;97.80;;;;;;4159498;28;19947;-60
2022/02/03 14:31:33;;;;;;;;;;;2.30;98.10;;;;;;4158522;28;19913;-59
2022/02/03 14:33:41;;;;;;;;;;;2.30;98.10;;;;;;4160311;28;19920;-59
2022/02/03 14:35:43;;;;;;;;;;;2.30;98.20;;;;;;4175566;28;19913;-58
2022/02/03 14:38:00;;;;;;;;;;;2.30;97.80;;;;;;4172998;28;19960;-56
2022/02/03 14:42:11;;;;;;;;;;;2.20;97.60;;;;;;4175485;28;20613;-63
2022/02/03 14:44:15;;;;;;;;;;;2.20;97.70;;;;;;4175216;28;19959;-59
2022/02/03 14:46:17;;;;;;;;;;;2.10;97.90;;;;;;4156835;28;20399;-61
2022/02/03 14:48:18;;;;;;;;;;;2.00;97.80;;;;;;4174125;28;19913;-55
2022/02/03 14:50:20;;;;;;;;;;;2.00;98.00;;;;;;4175005;28;20179;-58
2022/02/03 14:52:33;;;;;;;;;;;1.90;98.10;;;;;;4175923;28;20634;-58
2022/02/03 14:58:54;;;;;;;;;;;1.70;98.80;;;;;;4174557;28;20529;-63
2022/02/03 15:00:57;;;;;;;;;;;1.60;99.20;;;;;;4175800;28;20605;-57
2022/02/03 15:02:58;;;;;;;;;;;1.60;99.10;;;;;;4173758;28;19928;-54
2022/02/03 15:05:06;;;;;;;;;;;1.50;99.10;;;;;;4158656;28;19909;-54
2022/02/03 15:07:09;;;;;;;;;;;1.50;99.60;;;;;;4158142;28;19913;-57
2022/02/03 15:09:45;;;;;;;;;;;1.50;99.30;;;;;;4158998;28;19979;-51
2022/02/03 15:12:04;;;;;;;;;;;1.40;99.60;;;;;;4157231;28;20300;-57
2022/02/03 15:13:59;;;;;;;;;;;1.40;99.60;;;;;;4158566;28;19913;-58
2022/02/03 15:16:00;;;;;;;;;;;1.30;99.50;;;;;;4157722;28;20400;-56
2022/02/03 15:18:01;;;;;;;;;;;1.30;99.90;;;;;;4159598;28;20222;-60
2022/02/03 15:20:03;;;;;;;;;;;1.30;99.90;;;;;;4156900;28;19933;-59
2022/02/03 15:22:04;;;;;;;;;;;1.20;99.90;;;;;;4159018;28;19966;-66
2022/02/03 15:24:05;;;;;;;;;;;1.20;99.90;;;;;;4161252;28;20400;-56
2022/02/03 15:26:06;;;;;;;;;;;1.10;99.90;;;;;;4158026;28;20016;-61
2022/02/03 15:28:07;;;;;;;;;;;1.10;99.90;;;;;;4156911;28;20439;-53
2022/02/03 15:30:10;;;;;;;;;;;1.00;99.90;;;;;;4158101;28;19917;-55
2022/02/03 15:32:11;;;;;;;;;;;0.90;99.90;;;;;;4158023;28;19974;-55
2022/02/03 15:34:17;;;;;;;;;;;0.90;99.90;;;;;;4157353;28;19924;-58
2022/02/03 15:36:18;;;;;;;;;;;0.80;99.90;;;;;;4157728;28;19913;-56
2022/02/03 15:38:21;;;;;;;;;;;0.70;99.90;;;;;;4156698;28;19913;-55
2022/02/03 15:40:25;;;;;;;;;;;0.60;99.90;;;;;;4164993;28;19920;-57
2022/02/03 15:42:28;;;;;;;;;;;0.60;99.90;;;;;;4173283;28;19967;-55
2022/02/03 15:44:37;;;;;;;;;;;0.50;99.90;;;;;;4174666;28;19963;-57
2022/02/03 15:46:44;;;;;;;;;;;0.50;99.90;;;;;;4154632;28;19913;-57
2022/02/03 16:13:49;;;;;;;;;;;-0.30;99.90;;;;;;4149323;28;19987;-57
2022/02/03 16:17:54;;;;;;;;;;;-0.30;99.90;;;;;;4172899;28;20323;-57
2022/02/03 16:20:11;;;;;;;;;;;-0.30;99.90;;;;;;4168793;28;19924;-57
2022/02/03 16:22:28;;;;;;;;;;;-0.40;99.90;;;;;;4161612;28;19917;-58
2022/02/03 16:24:44;;;;;;;;;;;-0.40;99.90;;;;;;4154413;28;20028;-55
2022/02/03 16:32:02;;;;;;;;;;;-0.40;99.90;;;;;;4156696;28;19963;-57
2022/02/03 16:42:11;;;;;;;;;;;-0.70;99.90;;;;;;4143376;28;19967;-55
2022/02/03 16:50:24;;;;;;;;;;;-0.80;99.90;;;;;;4139324;28;19937;-50
2022/02/03 16:54:29;;;;;;;;;;;-0.90;99.90;;;;;;4172534;28;19912;-56
2022/02/03 16:56:30;;;;;;;;;;;-0.90;99.90;;;;;;4166458;28;19913;-58
2022/02/03 16:58:33;;;;;;;;;;;-0.90;99.90;;;;;;4156173;28;19913;-57
2022/02/03 17:00:35;;;;;;;;;;;-1.00;99.90;;;;;;4156140;28;20441;-55
2022/02/03 17:02:36;;;;;;;;;;;-1.00;99.90;;;;;;4171120;28;20262;-56
2022/02/03 17:04:37;;;;;;;;;;;-1.00;99.90;;;;;;4157727;28;20364;-58
2022/02/03 17:06:38;;;;;;;;;;;-1.00;99.90;;;;;;4164461;28;19914;-59
2022/02/03 17:08:39;;;;;;;;;;;-1.00;99.90;;;;;;4156129;28;20612;-56
2022/02/03 17:10:40;;;;;;;;;;;-1.00;99.90;;;;;;4157031;28;19913;-60
2022/02/03 17:12:41;;;;;;;;;;;-1.00;99.90;;;;;;4147937;28;19925;-60
2022/02/03 17:14:42;;;;;;;;;;;-1.00;99.90;;;;;;4156983;28;19913;-56
2022/02/03 17:16:43;;;;;;;;;;;-1.00;99.90;;;;;;4160939;28;19928;-54
2022/02/03 17:18:44;;;;;;;;;;;-1.00;99.90;;;;;;4173249;28;19935;-58
2022/02/03 17:20:46;;;;;;;;;;;-1.00;99.90;;;;;;4171388;28;19921;-55
2022/02/03 17:22:50;;;;;;;;;;;-1.00;99.90;;;;;;4172932;28;19916;-63
2022/02/03 17:25:07;;;;;;;;;;;-1.10;99.90;;;;;;4170806;28;20515;-54
2022/02/03 17:27:19;;;;;;;;;;;-1.10;99.90;;;;;;4160252;28;19925;-59
2022/02/03 17:29:35;;;;;;;;;;;-1.10;99.90;;;;;;4155577;28;20447;-59
2022/02/03 17:52:49;;;;;;;;;;;-1.40;99.90;;;;;;4154345;28;21604;-51
2022/02/03 18:04:03;;;;;;;;;;;-1.50;99.90;;;;;;4158100;28;19971;-56
2022/02/03 18:10:28;;;;;;;;;;;-1.50;99.90;;;;;;4169965;28;19913;-53
2022/02/03 18:48:30;;;;;;;;;;;-1.50;99.90;;;;;;4128427;28;19968;-55
2022/02/03 18:49:51;;;;;;;;;;;-1.50;99.90;;;;;;4129784;28;19956;-55
2022/02/03 18:51:40;;;;;;;;;;;-1.50;99.90;;;;;;4142306;28;19991;-57
2022/02/03 18:53:59;;;;;;;;;;;-1.40;99.90;;;;;;4143549;28;19979;-51
2022/02/03 18:56:09;;;;;;;;;;;-1.40;99.90;;;;;;4141733;28;19917;-56
2022/02/03 18:58:29;;;;;;;;;;;-1.40;99.90;;;;;;4166963;28;19917;-59
2022/02/03 19:00:58;;;;;;;;;;;-1.50;99.90;;;;;;4157831;28;20748;-54
2022/02/03 19:09:37;;;;;;;;;;;-1.50;99.90;;;;;;4160261;28;19921;-51
2022/02/03 19:27:58;;;;;;;;;;;-1.90;99.90;;;;;;4157382;28;20365;-61
2022/02/03 20:07:01;;;;;;;;;;;-1.90;99.90;;;;;;4166053;28;20321;-51
2022/02/03 20:11:15;;;;;;;;;;;-1.90;99.90;;;;;;4167504;28;20357;-57
2022/02/03 20:13:16;;;;;;;;;;;-1.80;99.90;;;;;;4156782;28;19971;-51
2022/02/03 20:15:20;;;;;;;;;;;-1.80;99.90;;;;;;4157349;28;19955;-50
2022/02/03 20:17:22;;;;;;;;;;;-1.80;99.90;;;;;;4157295;28;19925;-54
2022/02/03 20:19:23;;;;;;;;;;;-1.80;99.90;;;;;;4156817;28;19912;-54
2022/02/03 20:21:29;;;;;;;;;;;-1.80;99.90;;;;;;4158066;28;20032;-52
2022/02/03 20:23:30;;;;;;;;;;;-1.80;99.90;;;;;;4164584;28;20410;-51
2022/02/03 20:25:31;;;;;;;;;;;-1.80;99.90;;;;;;4166885;28;19913;-53
2022/02/03 20:27:32;;;;;;;;;;;-1.80;99.90;;;;;;4155929;28;19913;-56
2022/02/03 20:29:33;;;;;;;;;;;-1.80;99.90;;;;;;4158179;28;19919;-54
2022/02/03 20:31:34;;;;;;;;;;;-1.80;99.90;;;;;;4156673;28;19939;-59
2022/02/03 20:33:35;;;;;;;;;;;-1.80;99.90;;;;;;4158346;28;19912;-50
2022/02/03 20:35:36;;;;;;;;;;;-1.80;99.90;;;;;;4156948;28;19923;-50
2022/02/03 20:37:38;;;;;;;;;;;-1.70;99.90;;;;;;4158166;28;20713;-54
2022/02/03 20:39:39;;;;;;;;;;;-1.80;99.90;;;;;;4156583;28;19909;-58
2022/02/03 20:41:40;;;;;;;;;;;-1.80;99.90;;;;;;4157252;28;19960;-52
2022/02/03 20:43:41;;;;;;;;;;;-1.70;99.90;;;;;;4156209;28;19967;-54
2022/02/03 20:45:43;;;;;;;;;;;-1.80;99.90;;;;;;4156963;28;19913;-53
2022/02/03 20:47:44;;;;;;;;;;;-1.80;99.90;;;;;;4156687;28;20773;-55
2022/02/03 20:49:45;;;;;;;;;;;-1.90;99.90;;;;;;4156111;28;19925;-55
2022/02/03 20:51:46;;;;;;;;;;;-1.90;99.90;;;;;;4157450;28;19916;-52
2022/02/03 20:53:48;;;;;;;;;;;-2.00;99.90;;;;;;4156175;28;19913;-54
2022/02/03 20:55:49;;;;;;;;;;;-2.00;99.90;;;;;;4157437;28;20309;-50
2022/02/03 20:57:50;;;;;;;;;;;-2.10;99.90;;;;;;4155971;28;19913;-56
2022/02/03 21:01:54;;;;;;;;;;;-2.10;99.90;;;;;;4155784;28;19913;-54
2022/02/03 21:04:02;;;;;;;;;;;-2.20;99.90;;;;;;4157292;28;19913;-52
2022/02/03 21:06:04;;;;;;;;;;;-2.20;99.90;;;;;;4155580;28;19917;-50
2022/02/03 21:08:05;;;;;;;;;;;-2.30;99.90;;;;;;4157429;28;19913;-52
2022/02/03 21:10:09;;;;;;;;;;;-2.30;99.90;;;;;;4155548;28;19955;-55
2022/02/03 21:12:10;;;;;;;;;;;-2.30;99.90;;;;;;4157756;28;20409;-50
2022/02/03 21:14:11;;;;;;;;;;;-2.40;99.90;;;;;;4156090;28;19916;-53
2022/02/03 21:16:13;;;;;;;;;;;-2.40;99.90;;;;;;4157531;28;20012;-53
2022/02/03 21:18:16;;;;;;;;;;;-2.40;99.90;;;;;;4156046;28;19925;-55
2022/02/03 21:20:19;;;;;;;;;;;-2.40;99.90;;;;;;4156904;28;19979;-59
2022/02/03 21:22:21;;;;;;;;;;;-2.50;99.90;;;;;;4156964;28;19913;-63
2022/02/03 21:24:22;;;;;;;;;;;-2.50;99.90;;;;;;4155405;28;19944;-61
2022/02/03 21:26:28;;;;;;;;;;;-2.50;99.90;;;;;;4156401;28;20373;-56
2022/02/03 21:28:32;;;;;;;;;;;-2.50;99.90;;;;;;4155802;28;19917;-53
2022/02/03 21:30:34;;;;;;;;;;;-2.50;99.90;;;;;;4157303;28;19965;-52
2022/02/03 21:32:37;;;;;;;;;;;-2.50;99.90;;;;;;4155744;28;19913;-58
2022/02/03 21:34:38;;;;;;;;;;;-2.50;99.90;;;;;;4156819;28;20365;-55
2022/02/03 21:36:40;;;;;;;;;;;-2.50;99.90;;;;;;4157393;28;19928;-58
2022/02/03 21:38:42;;;;;;;;;;;-2.50;99.90;;;;;;4163327;28;20343;-57
2022/02/03 21:40:43;;;;;;;;;;;-2.50;99.90;;;;;;4173849;28;19970;-56
2022/02/03 21:42:44;;;;;;;;;;;-2.50;99.90;;;;;;4178702;28;19908;-53
2022/02/03 21:44:45;;;;;;;;;;;-2.50;99.90;;;;;;4163642;28;19954;-51
2022/02/03 21:46:45;;;;;;;;;;;-2.50;99.90;;;;;;4175050;28;19917;-51
2022/02/03 21:48:50;;;;;;;;;;;-2.50;99.90;;;;;;4177600;28;20300;-56
2022/02/03 21:50:52;;;;;;;;;;;-2.40;99.90;;;;;;4179070;28;19909;-63
2022/02/03 21:52:54;;;;;;;;;;;-2.40;99.90;;;;;;4178029;28;19920;-60
2022/02/03 21:54:55;;;;;;;;;;;-2.40;99.90;;;;;;4178893;28;19912;-54
2022/02/03 21:56:56;;;;;;;;;;;-2.40;99.90;;;;;;4166015;28;20373;-48
2022/02/03 21:58:57;;;;;;;;;;;-2.40;99.90;;;;;;4161717;28;20357;-52
2022/02/03 22:00:59;;;;;;;;;;;-2.50;99.90;;;;;;4163033;28;20285;-57
2022/02/03 22:03:00;;;;;;;;;;;-2.60;99.90;;;;;;4167247;28;19917;-59
2022/02/03 22:05:03;;;;;;;;;;;-2.60;99.90;;;;;;4178961;28;19923;-58
2022/02/03 22:07:05;;;;;;;;;;;-2.60;99.90;;;;;;4177791;28;19916;-54
2022/02/03 22:09:06;;;;;;;;;;;-2.70;99.90;;;;;;4178554;28;19917;-54
2022/02/03 22:11:07;;;;;;;;;;;-2.70;99.90;;;;;;4176173;28;19928;-56
2022/02/03 22:13:08;;;;;;;;;;;-2.70;99.90;;;;;;4178899;28;19921;-52
2022/02/03 22:15:09;;;;;;;;;;;-2.80;99.90;;;;;;4164550;28;19975;-51
2022/02/03 22:17:10;;;;;;;;;;;-2.80;99.90;;;;;;4162647;28;19991;-54
2022/02/03 22:19:11;;;;;;;;;;;-2.90;99.90;;;;;;4162081;28;20365;-55
2022/02/03 22:21:27;;;;;;;;;;;-2.90;99.90;;;;;;4173682;28;19925;-51
2022/02/03 22:48:12;;;;;;;;;;;-3.10;99.90;;;;;;4175582;28;20390;-51
2022/02/03 22:50:13;;;;;;;;;;;-3.20;99.90;;;;;;4173112;28;20381;-51
2022/02/03 22:52:16;;;;;;;;;;;-3.20;99.90;;;;;;4176770;28;19916;-53
2022/02/03 22:54:18;;;;;;;;;;;-3.20;99.90;;;;;;4156651;28;19917;-48